createdAt,value
2018-10-21T00:02:09.361Z,40.17
2018-10-21T00:04:37.506Z,39.83
2018-10-21T00:07:05.603Z,37.20
2018-10-21T00:09:33.754Z,35.33
2018-10-21T00:12:01.879Z,42.40
2018-10-21T00:14:29.999Z,40.07
2018-10-21T00:16:58.221Z,39.37
2018-10-21T00:19:26.337Z,40.57
2018-10-21T00:21:54.432Z,45.47
2018-10-21T00:24:22.567Z,47.27
2018-10-21T00:26:50.665Z,39.67
2018-10-21T00:29:18.833Z,42.60
2018-10-21T00:31:46.930Z,45.07
2018-10-21T00:34:15.079Z,45.33
2018-10-21T00:36:43.185Z,50.63
2018-10-21T00:39:13.174Z,49.93
2018-10-21T00:41:41.372Z,46.67
2018-10-21T00:44:09.724Z,47.40
2018-10-21T00:46:38.043Z,47.73
2018-10-21T00:49:06.179Z,51.67
2018-10-21T00:51:34.319Z,48.70
2018-10-21T00:54:02.428Z,48.77
2018-10-21T00:56:30.538Z,50.37
2018-10-21T00:58:58.667Z,41.27
2018-10-21T01:01:26.879Z,51.00
2018-10-21T01:03:55.035Z,49.87
2018-10-21T01:06:23.355Z,47.03
2018-10-21T01:08:51.492Z,45.93
2018-10-21T01:11:19.647Z,43.57
2018-10-21T01:13:47.742Z,43.77
2018-10-21T01:16:15.839Z,43.63
2018-10-21T01:18:43.955Z,47.50
2018-10-21T01:21:12.139Z,40.20
2018-10-21T01:23:40.211Z,41.93
2018-10-21T01:26:08.370Z,43.47
2018-10-21T01:28:36.478Z,41.53
2018-10-21T01:31:04.719Z,40.67
2018-10-21T01:33:32.816Z,43.37
2018-10-21T01:36:00.978Z,40.10
2018-10-21T01:38:29.164Z,38.50
2018-10-21T01:40:59.885Z,42.73
2018-10-21T01:43:30.421Z,35.47
2018-10-21T01:45:59.199Z,38.07
2018-10-21T01:48:28.504Z,31.93
2018-10-21T01:50:56.689Z,33.03
2018-10-21T01:53:25.147Z,37.70
2018-10-21T01:55:53.318Z,30.40
2018-10-21T01:58:21.423Z,28.93
2018-10-21T02:00:49.544Z,34.73
2018-10-21T02:03:17.888Z,28.30
2018-10-21T02:05:46.635Z,33.63
2018-10-21T02:08:14.818Z,29.83
2018-10-21T02:10:43.010Z,29.60
2018-10-21T02:13:11.207Z,30.57
2018-10-21T02:15:39.303Z,30.10
2018-10-21T02:18:07.427Z,27.30
2018-10-21T02:20:35.608Z,30.27
2018-10-21T02:23:03.807Z,30.43
2018-10-21T02:25:31.947Z,30.83
2018-10-21T02:28:00.137Z,26.47
2018-10-21T02:30:29.306Z,32.17
2018-10-21T02:32:58.228Z,30.40
2018-10-21T02:35:26.383Z,30.07
2018-10-21T02:37:55.263Z,33.03
2018-10-21T02:41:29.181Z,32.10
2018-10-21T02:43:57.282Z,33.07
2018-10-21T02:46:25.640Z,32.73
2018-10-21T02:48:54.829Z,30.00
2018-10-21T02:51:22.915Z,33.30
2018-10-21T02:53:51.206Z,25.50
2018-10-21T02:56:19.354Z,31.10
2018-10-21T02:58:47.567Z,32.53
2018-10-21T03:01:15.696Z,28.77
2018-10-21T03:03:43.914Z,27.47
2018-10-21T03:06:12.015Z,30.23
2018-10-21T03:08:40.429Z,29.20
2018-10-21T03:11:08.523Z,29.37
2018-10-21T03:13:36.714Z,28.93
2018-10-21T03:16:05.159Z,29.60
2018-10-21T03:18:33.562Z,30.47
2018-10-21T03:21:02.677Z,31.60
2018-10-21T03:23:30.726Z,31.40
2018-10-21T03:25:59.383Z,32.47
2018-10-21T03:28:27.540Z,30.50
2018-10-21T03:30:55.727Z,32.27
2018-10-21T03:33:24.098Z,29.60
2018-10-21T03:35:52.059Z,32.20
2018-10-21T03:38:20.238Z,34.20
2018-10-21T03:40:48.366Z,33.53
2018-10-21T03:43:16.571Z,35.87
2018-10-21T03:45:44.673Z,38.10
2018-10-21T03:48:12.843Z,35.23
2018-10-21T03:50:41.062Z,36.87
2018-10-21T03:53:09.239Z,36.13
2018-10-21T03:55:39.271Z,38.53
2018-10-21T03:58:07.404Z,36.00
2018-10-21T04:00:36.015Z,38.90
2018-10-21T04:03:04.591Z,41.83
2018-10-21T04:05:33.047Z,42.03
2018-10-21T04:08:01.238Z,36.87
2018-10-21T04:10:29.407Z,38.90
2018-10-21T04:12:57.784Z,38.93
2018-10-21T04:15:25.938Z,43.80
2018-10-21T04:17:54.431Z,42.27
2018-10-21T04:20:22.721Z,46.03
2018-10-21T04:22:53.846Z,44.03
2018-10-21T04:25:22.870Z,47.50
2018-10-21T04:27:51.951Z,46.00
2018-10-21T04:30:26.375Z,49.47
2018-10-21T04:33:57.841Z,51.90
2018-10-21T04:36:29.533Z,46.20
2018-10-21T04:40:06.504Z,49.27
2018-10-21T04:42:34.594Z,52.07
2018-10-21T04:45:03.327Z,48.93
2018-10-21T04:47:31.818Z,49.23
2018-10-21T04:50:00.012Z,46.57
2018-10-21T04:52:29.192Z,47.07
2018-10-21T04:55:02.758Z,48.90
2018-10-21T04:57:30.860Z,52.57
2018-10-21T04:59:58.980Z,54.77
2018-10-21T05:02:27.552Z,54.10
2018-10-21T05:04:55.703Z,49.90
2018-10-21T05:07:24.063Z,56.57
2018-10-21T05:09:52.540Z,48.60
2018-10-21T05:12:20.719Z,50.17
2018-10-21T05:14:48.806Z,46.30
2018-10-21T05:17:16.923Z,49.27
2018-10-21T05:19:45.026Z,53.03
2018-10-21T05:22:13.149Z,56.87
2018-10-21T05:24:41.283Z,53.47
2018-10-21T05:27:09.454Z,52.73
2018-10-21T05:29:37.679Z,50.53
2018-10-21T05:32:05.803Z,49.80
2018-10-21T05:34:33.918Z,50.27
2018-10-21T05:37:02.056Z,55.60
2018-10-21T05:39:30.222Z,52.93
2018-10-21T05:41:58.315Z,51.27
2018-10-21T05:44:26.475Z,54.17
2018-10-21T05:46:54.593Z,54.43
2018-10-21T05:49:22.668Z,53.57
2018-10-21T05:51:51.602Z,52.00
2018-10-21T05:54:20.199Z,53.23
2018-10-21T05:56:50.623Z,60.80
2018-10-21T05:59:19.102Z,49.00
2018-10-21T06:01:47.794Z,57.07
2018-10-21T06:04:17.572Z,53.97
2018-10-21T06:06:45.751Z,46.30
2018-10-21T06:09:14.658Z,45.60
2018-10-21T06:11:42.760Z,46.07
2018-10-21T06:14:11.146Z,48.33
2018-10-21T06:16:46.596Z,48.80
2018-10-21T06:19:20.414Z,47.27
2018-10-21T06:21:48.559Z,48.70
2018-10-21T06:24:17.429Z,41.27
2018-10-21T06:26:45.545Z,41.30
2018-10-21T06:29:13.679Z,48.33
2018-10-21T06:31:41.804Z,49.10
2018-10-21T06:34:09.944Z,43.73
2018-10-21T06:36:38.121Z,39.53
2018-10-21T06:39:06.335Z,44.57
2018-10-21T06:41:34.368Z,44.90
2018-10-21T06:44:02.534Z,41.67
2018-10-21T06:46:30.687Z,42.60
2018-10-21T06:48:58.778Z,40.90
2018-10-21T06:51:26.891Z,50.17
2018-10-21T06:53:55.029Z,37.93
2018-10-21T06:56:23.155Z,39.07
2018-10-21T06:58:51.225Z,38.97
2018-10-21T07:01:19.455Z,36.50
2018-10-21T07:03:47.609Z,37.70
2018-10-21T07:06:17.017Z,38.13
2018-10-21T07:08:45.683Z,39.27
2018-10-21T07:11:14.347Z,36.17
2018-10-21T07:13:42.573Z,37.23
2018-10-21T07:16:10.992Z,37.87
2018-10-21T07:18:39.642Z,36.77
2018-10-21T07:21:07.806Z,35.03
2018-10-21T07:23:35.912Z,37.00
2018-10-21T07:26:04.250Z,35.00
2018-10-21T07:28:32.423Z,37.20
2018-10-21T07:31:00.611Z,33.17
2018-10-21T07:33:28.706Z,34.40
2018-10-21T07:35:57.235Z,36.70
2018-10-21T07:38:25.355Z,32.20
2018-10-21T07:40:53.699Z,34.90
2018-10-21T07:43:21.882Z,33.23
2018-10-21T07:45:49.973Z,31.33
2018-10-21T07:48:18.067Z,35.17
2018-10-21T07:50:46.216Z,30.23
2018-10-21T07:53:14.359Z,32.73
2018-10-21T07:55:42.946Z,38.30
2018-10-21T07:58:11.319Z,32.40
2018-10-21T08:00:39.393Z,35.43
2018-10-21T08:03:07.895Z,35.80
2018-10-21T08:05:41.487Z,35.40
2018-10-21T08:08:12.426Z,28.47
2018-10-21T08:10:40.631Z,30.87
2018-10-21T08:13:09.803Z,34.17
2018-10-21T08:15:37.904Z,33.73
2018-10-21T08:18:06.456Z,33.20
2018-10-21T08:20:34.816Z,29.30
2018-10-21T08:23:03.118Z,36.20
2018-10-21T08:25:31.319Z,31.37
2018-10-21T08:27:59.470Z,33.00
2018-10-21T08:30:27.562Z,34.10
2018-10-21T08:32:55.687Z,34.97
2018-10-21T08:35:23.776Z,34.50
2018-10-21T08:37:52.450Z,28.60
2018-10-21T08:40:20.552Z,31.43
2018-10-21T08:42:48.695Z,31.57
2018-10-21T08:45:16.811Z,34.13
2018-10-21T08:47:44.960Z,33.27
2018-10-21T08:50:13.662Z,28.43
2018-10-21T08:52:42.003Z,30.27
2018-10-21T08:55:11.075Z,28.77
2018-10-21T08:57:39.384Z,33.40
2018-10-21T09:00:09.667Z,28.93
2018-10-21T09:02:37.766Z,26.30
2018-10-21T09:05:06.929Z,31.27
2018-10-21T09:07:35.044Z,31.07
2018-10-21T09:10:03.307Z,30.67
2018-10-21T09:12:31.439Z,27.33
2018-10-21T09:14:59.577Z,30.10
2018-10-21T09:17:27.645Z,30.23
2018-10-21T09:19:55.929Z,28.43
2018-10-21T09:22:24.025Z,33.43
2018-10-21T09:24:52.188Z,30.23
2018-10-21T09:27:20.759Z,29.13
2018-10-21T09:29:48.984Z,29.40
2018-10-21T09:32:17.126Z,25.83
2018-10-21T09:34:45.347Z,33.13
2018-10-21T09:37:13.517Z,28.83
2018-10-21T09:39:42.048Z,33.00
2018-10-21T09:42:10.282Z,31.77
2018-10-21T09:44:38.402Z,28.67
2018-10-21T09:47:06.600Z,32.10
2018-10-21T09:49:34.788Z,30.63
2018-10-21T09:52:02.925Z,27.90
2018-10-21T09:54:31.087Z,32.50
2018-10-21T09:56:59.325Z,30.07
2018-10-21T09:59:27.424Z,35.10
2018-10-21T10:02:01.032Z,31.87
2018-10-21T10:04:29.251Z,35.87
2018-10-21T10:06:57.382Z,33.83
2018-10-21T10:09:25.538Z,33.63
2018-10-21T10:11:53.728Z,37.83
2018-10-21T10:14:21.859Z,35.20
2018-10-21T10:16:49.973Z,34.40
2018-10-21T10:19:18.199Z,33.90
2018-10-21T10:21:46.339Z,33.53
2018-10-21T10:24:14.468Z,33.87
2018-10-21T10:26:42.642Z,34.10
2018-10-21T10:29:10.923Z,33.37
2018-10-21T10:31:39.095Z,33.13
2018-10-21T10:34:07.330Z,37.00
2018-10-21T10:36:35.472Z,38.07
2018-10-21T10:39:03.766Z,37.90
2018-10-21T10:41:31.898Z,36.83
2018-10-21T10:44:00.064Z,39.50
2018-10-21T10:46:28.286Z,40.83
2018-10-21T10:48:56.438Z,34.93
2018-10-21T10:51:24.541Z,39.87
2018-10-21T10:53:52.680Z,39.47
2018-10-21T10:56:20.804Z,42.70
2018-10-21T10:58:48.903Z,40.13
2018-10-21T11:01:17.321Z,38.50
2018-10-21T11:03:46.194Z,40.90
2018-10-21T11:06:14.455Z,41.40
2018-10-21T11:08:45.592Z,42.17
2018-10-21T11:13:41.280Z,43.53
2018-10-21T11:16:09.868Z,44.37
2018-10-21T11:18:38.136Z,41.87
2018-10-21T11:21:06.619Z,41.77
2018-10-21T11:23:37.638Z,43.00
2018-10-21T11:26:05.756Z,38.80
2018-10-21T11:28:34.023Z,40.47
2018-10-21T11:31:02.222Z,41.37
2018-10-21T11:33:32.401Z,46.87
2018-10-21T11:36:00.555Z,40.57
2018-10-21T11:38:28.819Z,43.73
2018-10-21T11:40:57.032Z,42.17
2018-10-21T11:43:25.232Z,44.13
2018-10-21T11:45:53.414Z,42.60
2018-10-21T11:48:22.885Z,38.37
2018-10-21T11:50:51.031Z,38.93
2018-10-21T11:53:19.242Z,41.17
2018-10-21T11:55:47.344Z,38.33
2018-10-21T11:58:15.914Z,44.03
2018-10-21T12:00:45.584Z,45.17
2018-10-21T12:03:13.716Z,44.80
2018-10-21T12:05:42.842Z,43.80
2018-10-21T12:08:11.421Z,45.40
2018-10-21T12:10:39.743Z,42.77
2018-10-21T12:13:08.251Z,41.17
2018-10-21T12:15:37.108Z,42.03
2018-10-21T12:18:05.591Z,44.53
2018-10-21T12:20:33.783Z,41.73
2018-10-21T12:23:02.035Z,38.37
2018-10-21T12:25:30.117Z,39.83
2018-10-21T12:27:59.901Z,40.20
2018-10-21T12:30:28.056Z,40.87
2018-10-21T12:32:56.213Z,39.90
2018-10-21T12:35:24.347Z,40.17
2018-10-21T12:37:52.519Z,40.53
2018-10-21T12:40:21.355Z,37.63
2018-10-21T12:42:49.471Z,40.13
2018-10-21T12:45:17.643Z,43.77
2018-10-21T12:47:46.013Z,43.10
2018-10-21T12:50:14.455Z,41.07
2018-10-21T12:52:43.260Z,34.53
2018-10-21T12:55:11.472Z,37.00
2018-10-21T12:57:39.616Z,43.27
2018-10-21T13:00:08.479Z,41.00
2018-10-21T13:02:36.642Z,39.93
2018-10-21T13:05:05.445Z,42.43
2018-10-21T13:07:33.643Z,41.43
2018-10-21T13:10:01.848Z,45.23
2018-10-21T13:12:29.990Z,43.50
2018-10-21T13:14:58.185Z,41.53
2018-10-21T13:17:26.304Z,42.80
2018-10-21T13:19:54.643Z,42.27
2018-10-21T13:22:22.992Z,41.57
2018-10-21T13:24:51.131Z,41.73
2018-10-21T13:27:19.323Z,40.33
2018-10-21T13:29:47.600Z,46.87
2018-10-21T13:32:15.895Z,44.83
2018-10-21T13:34:44.633Z,42.93
2018-10-21T13:37:12.800Z,42.83
2018-10-21T13:39:40.923Z,41.37
2018-10-21T13:42:09.036Z,39.40
2018-10-21T13:44:37.176Z,38.40
2018-10-21T13:47:05.549Z,39.40
2018-10-21T13:49:34.307Z,40.93
2018-10-21T13:52:02.618Z,36.13
2018-10-21T13:54:30.604Z,37.40
2018-10-21T13:56:58.783Z,38.30
2018-10-21T13:59:26.961Z,42.97
2018-10-21T14:01:55.336Z,42.27
2018-10-21T14:04:23.761Z,44.30
2018-10-21T14:06:51.922Z,39.67
2018-10-21T14:09:20.034Z,38.17
2018-10-21T14:11:48.305Z,38.60
2018-10-21T14:14:16.482Z,39.87
2018-10-21T14:16:44.982Z,36.87
2018-10-21T14:19:13.171Z,41.87
2018-10-21T14:21:41.660Z,36.80
2018-10-21T14:24:09.923Z,40.17
2018-10-21T14:26:39.362Z,38.53
2018-10-21T14:29:07.520Z,36.90
2018-10-21T14:31:35.689Z,39.07
2018-10-21T14:34:03.881Z,42.73
2018-10-21T14:36:32.003Z,37.30
2018-10-21T14:39:00.209Z,41.93
2018-10-21T14:41:29.003Z,37.80
2018-10-21T14:43:57.748Z,40.17
2018-10-21T14:46:25.851Z,36.33
2018-10-21T14:48:53.958Z,39.93
2018-10-21T14:51:22.072Z,38.50
2018-10-21T14:53:50.243Z,36.47
2018-10-21T14:56:18.465Z,36.37
2018-10-21T14:58:46.531Z,39.03
2018-10-21T15:01:14.648Z,36.77
2018-10-21T15:03:42.752Z,37.93
2018-10-21T15:06:10.967Z,38.20
2018-10-21T15:08:39.016Z,37.73
2018-10-21T15:11:07.135Z,33.63
2018-10-21T15:13:35.823Z,34.07
2018-10-21T15:16:04.038Z,33.80
2018-10-21T15:18:32.294Z,37.10
2018-10-21T15:21:00.455Z,37.70
2018-10-21T15:23:28.690Z,32.47
2018-10-21T15:25:57.019Z,33.87
2018-10-21T15:28:25.284Z,32.73
2018-10-21T15:30:54.107Z,31.50
2018-10-21T15:33:22.537Z,30.10
2018-10-21T15:35:51.401Z,30.90
2018-10-21T15:38:20.282Z,30.43
2018-10-21T15:40:48.399Z,31.40
2018-10-21T15:43:17.017Z,28.90
2018-10-21T15:45:45.463Z,29.40
2018-10-21T15:48:13.712Z,28.77
2018-10-21T15:50:41.906Z,29.13
2018-10-21T15:53:10.007Z,30.10
2018-10-21T15:55:38.153Z,32.23
2018-10-21T15:58:07.011Z,27.53
2018-10-21T16:00:35.082Z,34.03
2018-10-21T16:03:03.281Z,32.87
2018-10-21T16:05:31.416Z,35.37
2018-10-21T16:07:59.576Z,34.23
2018-10-21T16:10:27.761Z,30.70
2018-10-21T16:12:55.914Z,29.20
2018-10-21T16:15:24.068Z,36.50
2018-10-21T16:17:52.177Z,31.47
2018-10-21T16:20:20.372Z,28.67
2018-10-21T16:22:48.707Z,31.30
2018-10-21T16:25:16.927Z,31.07
2018-10-21T16:27:45.072Z,32.90
2018-10-21T16:30:14.409Z,31.87
2018-10-21T16:32:43.480Z,29.17
2018-10-21T16:35:11.937Z,31.20
2018-10-21T16:37:40.615Z,30.90
2018-10-21T16:40:10.471Z,30.30
2018-10-21T16:42:39.207Z,29.23
2018-10-21T16:45:08.091Z,31.53
2018-10-21T16:47:37.339Z,33.00
2018-10-21T16:50:06.795Z,33.30
2018-10-21T16:52:34.998Z,33.87
2018-10-21T16:55:03.176Z,31.53
2018-10-21T16:57:31.374Z,35.23
2018-10-21T16:59:59.514Z,36.43
2018-10-21T17:02:27.666Z,31.17
2018-10-21T17:04:55.911Z,33.63
2018-10-21T17:07:24.024Z,34.00
2018-10-21T17:09:52.688Z,30.87
2018-10-21T17:13:49.760Z,37.00
2018-10-21T17:16:18.140Z,38.13
2018-10-21T17:18:46.266Z,33.70
2018-10-21T17:21:14.401Z,38.33
2018-10-21T17:23:42.555Z,34.60
2018-10-21T17:26:10.863Z,30.10
2018-10-21T17:28:39.196Z,32.43
2018-10-21T17:31:07.518Z,31.97
2018-10-21T17:33:35.635Z,31.10
2018-10-21T17:36:03.804Z,32.33
2018-10-21T17:38:32.039Z,30.47
2018-10-21T17:41:00.226Z,35.57
2018-10-21T17:43:28.359Z,33.13
2018-10-21T17:45:56.617Z,33.53
2018-10-21T17:48:24.778Z,39.43
2018-10-21T17:50:52.920Z,36.03
2018-10-21T17:53:21.055Z,36.07
2018-10-21T17:55:49.173Z,31.83
2018-10-21T17:58:17.711Z,30.30
2018-10-21T18:00:45.859Z,33.93
2018-10-21T18:03:14.104Z,31.70
2018-10-21T18:05:42.592Z,35.57
2018-10-21T18:08:10.820Z,35.17
2018-10-21T18:10:38.941Z,35.37
2018-10-21T18:13:07.123Z,35.80
2018-10-21T18:15:35.621Z,34.97
2018-10-21T18:18:03.766Z,35.80
2018-10-21T18:20:32.185Z,37.20
2018-10-21T18:23:00.431Z,40.17
2018-10-21T18:25:28.771Z,34.17
2018-10-21T18:27:56.998Z,34.40
2018-10-21T18:30:25.113Z,37.70
2018-10-21T18:32:53.411Z,32.67
2018-10-21T18:35:22.661Z,34.13
2018-10-21T18:37:52.700Z,35.17
2018-10-21T18:40:23.552Z,35.97
2018-10-21T18:42:56.160Z,37.47
2018-10-21T18:45:37.203Z,35.23
2018-10-21T18:48:06.541Z,36.80
2018-10-21T18:50:35.093Z,41.13
2018-10-21T18:53:03.271Z,38.33
2018-10-21T18:55:31.446Z,40.23
2018-10-21T18:57:59.973Z,39.23
2018-10-21T19:00:28.080Z,42.20
2018-10-21T19:02:56.199Z,41.03
2018-10-21T19:05:24.578Z,41.13
2018-10-21T19:07:52.968Z,34.87
2018-10-21T19:10:21.139Z,38.60
2018-10-21T19:12:59.573Z,39.43
2018-10-21T19:15:17.670Z,44.20
2018-10-21T19:17:46.011Z,44.57
2018-10-21T19:20:15.492Z,43.10
2018-10-21T19:22:43.615Z,44.50
2018-10-21T19:25:13.306Z,41.23
2018-10-21T19:27:41.892Z,37.17
2018-10-21T19:30:10.915Z,41.80
2018-10-21T19:32:39.371Z,40.03
2018-10-21T19:35:08.510Z,42.60
2018-10-21T19:37:36.960Z,38.83
2018-10-21T19:40:05.603Z,42.87
2018-10-21T19:42:35.565Z,37.93
2018-10-21T19:45:03.695Z,42.10
2018-10-21T19:47:31.818Z,39.67
2018-10-21T19:50:00.081Z,46.43
2018-10-21T19:52:28.456Z,45.20
2018-10-21T19:54:56.840Z,45.53
2018-10-21T19:57:25.320Z,39.43
2018-10-21T19:59:53.516Z,47.83
2018-10-21T20:02:21.736Z,41.93
2018-10-21T20:04:49.863Z,41.47
2018-10-21T20:07:18.155Z,41.90
2018-10-21T20:09:46.188Z,47.33
2018-10-21T20:12:14.355Z,43.20
2018-10-21T20:14:42.423Z,43.40
2018-10-21T20:17:10.595Z,40.60
2018-10-21T20:19:38.713Z,40.83
2018-10-21T20:22:08.264Z,43.63
2018-10-21T20:24:36.415Z,46.77
2018-10-21T20:27:04.899Z,44.00
2018-10-21T20:29:33.144Z,43.00
2018-10-21T20:32:01.264Z,46.57
2018-10-21T20:34:29.417Z,45.17
2018-10-21T20:36:57.587Z,45.53
2018-10-21T20:39:25.876Z,44.40
2018-10-21T20:41:54.042Z,46.93
2018-10-21T20:44:22.348Z,47.83
2018-10-21T20:46:50.455Z,47.63
2018-10-21T20:49:18.693Z,43.30
2018-10-21T20:51:47.049Z,44.40
2018-10-21T20:54:15.252Z,46.90
2018-10-21T20:56:43.400Z,60.63
2018-10-21T20:59:11.540Z,48.03
2018-10-21T21:01:39.678Z,48.27
2018-10-21T21:04:07.835Z,51.00
2018-10-21T21:06:35.938Z,49.33
2018-10-21T21:09:06.085Z,53.17
2018-10-21T21:11:34.327Z,57.40
2018-10-21T21:14:02.555Z,52.77
2018-10-21T21:16:30.661Z,51.20
2018-10-21T21:18:58.784Z,56.00
2018-10-21T21:21:26.915Z,57.37
2018-10-21T21:23:55.038Z,59.50
2018-10-21T21:26:23.163Z,54.17
2018-10-21T21:28:51.280Z,58.47
2018-10-21T21:31:19.413Z,57.07
2018-10-21T21:33:47.589Z,56.43
2018-10-21T21:36:15.814Z,56.57
2018-10-21T21:38:43.844Z,54.90
2018-10-21T21:41:11.967Z,58.60
2018-10-21T21:43:40.077Z,61.50
2018-10-21T21:46:08.348Z,55.13
2018-10-21T21:48:36.455Z,56.13
2018-10-21T21:51:04.607Z,59.37
2018-10-21T21:53:32.774Z,61.97
2018-10-21T21:56:01.100Z,63.90
2018-10-21T21:58:29.337Z,59.20
2018-10-21T22:00:57.542Z,55.67
2018-10-21T22:03:25.712Z,59.00
2018-10-21T22:05:53.867Z,66.07
2018-10-21T22:08:22.039Z,54.40
2018-10-21T22:10:50.140Z,56.93
2018-10-21T22:13:18.304Z,60.90
2018-10-21T22:15:46.607Z,59.70
2018-10-21T22:18:14.858Z,54.30
2018-10-21T22:20:42.994Z,55.13
2018-10-21T22:23:11.171Z,58.13
2018-10-21T22:25:39.407Z,54.70
2018-10-21T22:28:07.682Z,53.77
2018-10-21T22:30:35.751Z,56.40
2018-10-21T22:33:04.028Z,52.80
2018-10-21T22:35:32.154Z,51.10
2018-10-21T22:38:00.293Z,50.93
2018-10-21T22:40:28.415Z,54.80
2018-10-21T22:42:56.587Z,48.50
2018-10-21T22:45:24.853Z,52.60
2018-10-21T22:47:53.092Z,49.23
2018-10-21T22:50:21.255Z,52.47
2018-10-21T22:52:49.359Z,45.53
2018-10-21T22:55:17.467Z,44.33
2018-10-21T22:57:45.554Z,41.87
2018-10-21T23:00:13.721Z,37.67
2018-10-21T23:02:41.871Z,36.40
2018-10-21T23:05:10.043Z,40.50
2018-10-21T23:07:38.951Z,37.87
2018-10-21T23:10:07.089Z,30.43
2018-10-21T23:12:35.280Z,32.70
2018-10-21T23:15:03.488Z,28.00
2018-10-21T23:17:31.594Z,31.63
2018-10-21T23:19:59.694Z,29.13
2018-10-21T23:22:28.018Z,35.20
2018-10-21T23:24:56.171Z,34.70
2018-10-21T23:27:24.315Z,33.90
2018-10-21T23:29:52.434Z,34.70
2018-10-21T23:32:20.559Z,37.73
2018-10-21T23:34:48.654Z,32.37
2018-10-21T23:37:16.736Z,39.97
2018-10-21T23:39:44.838Z,42.60
2018-10-21T23:42:13.124Z,38.63
2018-10-21T23:44:41.170Z,36.97
2018-10-21T23:47:09.339Z,37.57
2018-10-21T23:49:37.439Z,34.40
2018-10-21T23:52:05.851Z,35.93
2018-10-21T23:54:33.936Z,37.33
2018-10-21T23:57:04.539Z,39.73
2018-10-21T23:59:32.877Z,34.73
